createdAt,value
2018-05-04T00:00:02.023Z,10.07
2018-05-04T00:02:29.557Z,8.30
2018-05-04T00:04:57.114Z,8.83
2018-05-04T00:07:24.648Z,9.00
2018-05-04T00:09:52.288Z,8.57
2018-05-04T00:12:20.598Z,8.30
2018-05-04T00:14:49.658Z,8.87
2018-05-04T00:17:17.191Z,10.03
2018-05-04T00:19:45.516Z,9.27
2018-05-04T00:22:13.051Z,15.40
2018-05-04T00:24:40.612Z,10.13
2018-05-04T00:27:08.141Z,8.47
2018-05-04T00:29:36.467Z,9.60
2018-05-04T00:32:03.998Z,9.93
2018-05-04T00:34:31.560Z,10.27
2018-05-04T00:36:59.097Z,9.47
2018-05-04T00:39:27.426Z,10.90
2018-05-04T00:41:54.960Z,8.13
2018-05-04T00:44:22.534Z,10.80
2018-05-04T00:46:50.096Z,14.97
2018-05-04T00:49:17.640Z,13.27
2018-05-04T00:51:45.200Z,9.23
2018-05-04T00:54:23.500Z,11.87
2018-05-04T00:56:51.054Z,11.70
2018-05-04T00:59:19.357Z,7.73
2018-05-04T01:01:46.916Z,6.90
2018-05-04T01:04:14.459Z,11.70
2018-05-04T01:06:42.015Z,8.70
2018-05-04T01:09:10.315Z,10.70
2018-05-04T01:11:37.917Z,8.30
2018-05-04T01:14:05.418Z,8.37
2018-05-04T01:16:32.976Z,7.80
2018-05-04T01:19:00.519Z,11.00
2018-05-04T01:21:28.863Z,9.90
2018-05-04T01:23:56.396Z,8.47
2018-05-04T01:26:23.954Z,8.57
2018-05-04T01:28:51.606Z,14.40
2018-05-04T01:31:19.166Z,10.87
2018-05-04T01:33:46.699Z,8.13
2018-05-04T01:36:15.024Z,9.20
2018-05-04T01:38:42.556Z,10.80
2018-05-04T01:41:10.118Z,9.27
2018-05-04T01:43:37.646Z,12.67
2018-05-04T01:46:05.206Z,7.23
2018-05-04T01:48:32.734Z,8.87
2018-05-04T01:51:00.292Z,10.30
2018-05-04T01:53:27.819Z,9.77
2018-05-04T01:55:55.374Z,12.80
2018-05-04T01:58:22.907Z,9.40
2018-05-04T02:00:51.234Z,10.43
2018-05-04T02:03:18.774Z,15.13
2018-05-04T02:05:46.335Z,9.93
2018-05-04T02:08:13.872Z,14.03
2018-05-04T02:10:42.186Z,8.97
2018-05-04T02:13:09.716Z,8.00
2018-05-04T02:15:38.042Z,10.33
2018-05-04T02:18:05.582Z,15.53
2018-05-04T02:20:33.146Z,10.93
2018-05-04T02:23:00.682Z,10.77
2018-05-04T02:25:28.232Z,7.77
2018-05-04T02:27:56.531Z,6.83
2018-05-04T02:30:38.121Z,8.47
2018-05-04T02:33:05.659Z,10.83
2018-05-04T02:35:33.987Z,10.03
2018-05-04T02:38:01.527Z,12.00
2018-05-04T02:40:29.093Z,8.10
2018-05-04T02:42:56.630Z,9.97
2018-05-04T02:45:24.192Z,12.13
2018-05-04T02:47:51.735Z,10.20
2018-05-04T02:50:20.055Z,8.90
2018-05-04T02:52:47.586Z,9.47
2018-05-04T02:55:15.143Z,7.73
2018-05-04T02:57:42.679Z,8.80
2018-05-04T03:00:11.007Z,10.07
2018-05-04T03:02:38.541Z,7.87
2018-05-04T03:05:06.100Z,11.00
2018-05-04T03:07:34.417Z,9.23
2018-05-04T03:10:01.955Z,10.80
2018-05-04T03:12:29.626Z,8.60
2018-05-04T03:14:58.004Z,8.73
2018-05-04T03:17:25.564Z,10.00
2018-05-04T03:19:53.124Z,10.40
2018-05-04T03:22:20.679Z,8.57
2018-05-04T03:24:48.219Z,9.93
2018-05-04T03:27:16.625Z,11.60
2018-05-04T03:29:44.166Z,12.27
2018-05-04T03:32:11.722Z,8.03
2018-05-04T03:34:39.262Z,12.73
2018-05-04T03:37:07.592Z,8.70
2018-05-04T03:39:35.125Z,12.23
2018-05-04T03:42:02.683Z,8.10
2018-05-04T03:44:30.222Z,13.37
2018-05-04T03:46:58.550Z,10.10
2018-05-04T03:49:26.124Z,8.23
2018-05-04T03:51:53.679Z,10.00
2018-05-04T03:54:21.211Z,12.27
2018-05-04T03:56:48.771Z,9.30
2018-05-04T03:59:28.194Z,11.57
2018-05-04T04:02:07.507Z,8.70
2018-05-04T04:04:35.810Z,12.30
2018-05-04T04:07:03.362Z,7.77
2018-05-04T04:09:31.664Z,11.13
2018-05-04T04:11:59.217Z,9.47
2018-05-04T04:14:26.754Z,8.17
2018-05-04T04:16:55.078Z,11.37
2018-05-04T04:19:22.603Z,12.13
2018-05-04T04:21:50.167Z,13.10
2018-05-04T04:24:17.702Z,13.00
2018-05-04T04:26:46.068Z,11.80
2018-05-04T04:29:13.598Z,12.63
2018-05-04T04:31:41.170Z,10.33
2018-05-04T04:34:08.715Z,13.73
2018-05-04T04:36:36.284Z,10.93
2018-05-04T04:39:03.827Z,14.77
2018-05-04T04:41:31.388Z,10.50
2018-05-04T04:43:58.935Z,11.30
2018-05-04T04:46:26.493Z,10.33
2018-05-04T04:48:54.026Z,11.90
2018-05-04T04:51:22.354Z,10.43
2018-05-04T04:53:49.972Z,9.57
2018-05-04T04:56:18.363Z,9.00
2018-05-04T04:58:45.926Z,10.40
2018-05-04T05:01:19.876Z,9.60
2018-05-04T05:03:47.774Z,10.57
2018-05-04T05:06:16.084Z,22.40
2018-05-04T05:08:43.646Z,12.23
2018-05-04T05:11:11.176Z,9.80
2018-05-04T05:13:39.518Z,8.93
2018-05-04T05:16:07.058Z,9.40
2018-05-04T05:18:34.615Z,9.67
2018-05-04T05:21:02.161Z,18.90
2018-05-04T05:23:29.722Z,11.73
2018-05-04T05:25:57.260Z,12.03
2018-05-04T05:28:25.579Z,11.23
2018-05-04T05:30:53.133Z,15.40
2018-05-04T05:33:20.696Z,11.10
2018-05-04T05:35:48.236Z,11.83
2018-05-04T05:38:15.805Z,10.33
2018-05-04T05:40:43.341Z,12.07
2018-05-04T05:43:11.667Z,18.43
2018-05-04T05:45:39.204Z,12.00
2018-05-04T05:48:06.769Z,10.67
2018-05-04T05:50:34.316Z,12.23
2018-05-04T05:53:01.893Z,12.00
2018-05-04T05:55:29.438Z,13.50
2018-05-04T05:57:57.002Z,10.50
2018-05-04T06:00:24.547Z,11.60
2018-05-04T06:02:52.103Z,12.20
2018-05-04T06:05:20.402Z,10.20
2018-05-04T06:07:48.787Z,12.47
2018-05-04T06:10:16.327Z,17.57
2018-05-04T06:12:43.878Z,8.87
2018-05-04T06:15:12.192Z,13.30
2018-05-04T06:17:39.756Z,15.83
2018-05-04T06:20:07.299Z,16.03
2018-05-04T06:22:34.854Z,12.03
2018-05-04T06:25:02.472Z,12.13
2018-05-04T06:27:29.975Z,13.67
2018-05-04T06:29:57.525Z,11.90
2018-05-04T06:32:25.091Z,16.20
2018-05-04T06:34:52.688Z,13.33
2018-05-04T06:37:20.232Z,19.17
2018-05-04T06:39:47.791Z,11.27
2018-05-04T06:42:15.344Z,17.63
2018-05-04T06:44:43.667Z,16.03
2018-05-04T06:47:11.203Z,10.33
2018-05-04T06:49:38.773Z,12.10
2018-05-04T06:52:06.310Z,15.40
2018-05-04T06:54:33.874Z,16.37
2018-05-04T06:57:01.406Z,10.60
2018-05-04T06:59:29.013Z,14.50
2018-05-04T07:01:56.535Z,12.27
2018-05-04T07:04:24.099Z,11.50
2018-05-04T07:06:51.638Z,10.23
2018-05-04T07:09:19.434Z,11.50
2018-05-04T07:11:46.989Z,11.60
2018-05-04T07:14:14.575Z,13.90
2018-05-04T07:16:42.109Z,13.43
2018-05-04T07:19:09.667Z,16.77
2018-05-04T07:21:37.198Z,9.57
2018-05-04T07:24:05.522Z,8.93
2018-05-04T07:26:33.134Z,12.53
2018-05-04T07:29:01.496Z,10.60
2018-05-04T07:31:29.031Z,16.80
2018-05-04T07:33:56.597Z,13.53
2018-05-04T07:36:24.133Z,9.47
2018-05-04T07:38:51.692Z,16.23
2018-05-04T07:41:19.234Z,12.07
2018-05-04T07:43:46.804Z,22.87
2018-05-04T07:46:14.347Z,12.93
2018-05-04T07:48:41.970Z,16.03
2018-05-04T07:51:09.470Z,10.20
2018-05-04T07:53:37.043Z,18.50
2018-05-04T07:56:04.581Z,13.07
2018-05-04T07:58:32.138Z,15.27
2018-05-04T08:01:00.451Z,11.97
2018-05-04T08:03:28.009Z,16.03
2018-05-04T08:05:55.551Z,12.97
2018-05-04T08:08:23.110Z,13.83
2018-05-04T08:10:50.647Z,12.07
2018-05-04T08:13:18.973Z,13.13
2018-05-04T08:15:46.513Z,18.80
2018-05-04T08:18:14.183Z,13.80
2018-05-04T08:20:41.721Z,12.47
2018-05-04T08:23:09.286Z,15.70
2018-05-04T08:25:36.825Z,18.20
2018-05-04T08:28:05.157Z,16.17
2018-05-04T08:30:32.708Z,15.43
2018-05-04T08:33:00.290Z,16.50
2018-05-04T08:35:27.850Z,12.57
2018-05-04T08:37:55.398Z,19.63
2018-05-04T08:40:22.956Z,13.70
2018-05-04T08:42:50.532Z,12.00
2018-05-04T08:45:18.091Z,13.60
2018-05-04T08:47:45.635Z,15.33
2018-05-04T08:50:13.199Z,17.17
2018-05-04T08:52:40.742Z,18.00
2018-05-04T08:55:08.308Z,13.10
2018-05-04T08:57:35.862Z,14.20
2018-05-04T09:00:03.432Z,17.30
2018-05-04T09:02:30.978Z,15.03
2018-05-04T09:04:58.544Z,18.73
2018-05-04T09:07:26.087Z,17.40
2018-05-04T09:09:53.663Z,16.53
2018-05-04T09:12:21.202Z,15.33
2018-05-04T09:14:48.767Z,14.83
2018-05-04T09:17:16.306Z,16.80
2018-05-04T09:19:44.641Z,22.30
2018-05-04T09:22:12.711Z,22.67
2018-05-04T09:24:41.413Z,19.60
2018-05-04T09:27:10.609Z,22.47
2018-05-04T09:29:38.955Z,15.70
2018-05-04T09:32:06.530Z,24.60
2018-05-04T09:34:34.094Z,18.13
2018-05-04T09:37:01.644Z,18.80
2018-05-04T09:39:29.211Z,22.47
2018-05-04T09:41:56.755Z,29.50
2018-05-04T09:44:24.326Z,20.20
2018-05-04T09:46:51.869Z,17.80
2018-05-04T09:49:19.439Z,19.30
2018-05-04T09:51:46.982Z,17.43
2018-05-04T09:54:14.659Z,20.00
2018-05-04T09:56:42.203Z,18.53
2018-05-04T09:59:09.763Z,20.80
2018-05-04T10:01:37.307Z,21.77
2018-05-04T10:04:05.653Z,26.60
2018-05-04T10:06:33.964Z,19.73
2018-05-04T10:09:02.374Z,20.90
2018-05-04T10:11:29.863Z,21.63
2018-05-04T10:13:57.428Z,21.73
2018-05-04T10:16:24.971Z,21.83
2018-05-04T10:18:52.535Z,22.20
2018-05-04T10:21:20.082Z,22.77
2018-05-04T10:23:47.649Z,27.60
2018-05-04T10:26:15.192Z,30.63
2018-05-04T10:28:42.753Z,26.53
2018-05-04T10:31:10.294Z,23.77
2018-05-04T10:33:37.836Z,26.07
2018-05-04T10:36:05.429Z,29.70
2018-05-04T10:38:32.991Z,21.50
2018-05-04T10:41:00.550Z,25.27
2018-05-04T10:43:28.091Z,24.07
2018-05-04T10:45:55.670Z,32.57
2018-05-04T10:48:23.206Z,28.63
2018-05-04T10:50:50.769Z,24.63
2018-05-04T10:53:18.312Z,28.73
2018-05-04T10:55:46.648Z,26.10
2018-05-04T10:58:14.191Z,25.20
2018-05-04T11:00:41.760Z,25.60
2018-05-04T11:03:09.298Z,25.17
2018-05-04T11:05:36.863Z,23.70
2018-05-04T11:08:05.178Z,25.97
2018-05-04T11:10:32.737Z,23.00
2018-05-04T11:13:00.274Z,26.10
2018-05-04T11:15:27.836Z,25.47
2018-05-04T11:17:55.387Z,29.33
2018-05-04T11:20:22.950Z,24.73
2018-05-04T11:22:50.491Z,22.67
2018-05-04T11:25:18.138Z,26.50
2018-05-04T11:27:45.630Z,25.70
2018-05-04T11:30:13.194Z,25.40
2018-05-04T11:32:40.730Z,22.90
2018-05-04T11:35:08.292Z,28.80
2018-05-04T11:37:35.836Z,26.37
2018-05-04T11:40:04.168Z,29.13
2018-05-04T11:42:31.705Z,24.00
2018-05-04T11:44:59.269Z,23.37
2018-05-04T11:47:26.811Z,27.27
2018-05-04T11:49:54.423Z,25.13
2018-05-04T11:52:23.467Z,23.03
2018-05-04T11:54:51.037Z,22.00
2018-05-04T11:57:18.584Z,23.13
2018-05-04T11:59:46.155Z,22.17
2018-05-04T12:02:13.696Z,27.20
2018-05-04T12:04:41.255Z,25.90
2018-05-04T12:07:08.794Z,24.70
2018-05-04T12:09:37.127Z,24.77
2018-05-04T12:12:04.665Z,35.83
2018-05-04T12:14:32.232Z,26.17
2018-05-04T12:16:59.775Z,22.57
2018-05-04T12:19:27.339Z,27.30
2018-05-04T12:21:54.890Z,23.03
2018-05-04T12:24:23.214Z,25.10
2018-05-04T12:26:50.754Z,22.97
2018-05-04T12:29:18.303Z,24.60
2018-05-04T12:31:45.875Z,26.87
2018-05-04T12:34:13.429Z,27.10
2018-05-04T12:36:40.999Z,24.50
2018-05-04T12:39:08.539Z,22.93
2018-05-04T12:41:36.109Z,24.33
2018-05-04T12:44:03.643Z,24.63
2018-05-04T12:46:31.972Z,24.37
2018-05-04T12:48:59.513Z,23.13
2018-05-04T12:51:27.081Z,22.30
2018-05-04T12:53:54.615Z,26.90
2018-05-04T12:56:22.179Z,37.40
2018-05-04T12:58:49.722Z,25.77
2018-05-04T13:01:18.049Z,25.23
2018-05-04T13:03:45.590Z,24.53
2018-05-04T13:06:13.169Z,24.63
2018-05-04T13:08:40.710Z,36.30
2018-05-04T13:11:08.279Z,22.47
2018-05-04T13:13:35.819Z,25.07
2018-05-04T13:16:03.377Z,24.50
2018-05-04T13:18:30.914Z,24.43
2018-05-04T13:20:59.248Z,34.70
2018-05-04T13:23:26.862Z,25.90
2018-05-04T13:25:54.388Z,24.97
2018-05-04T13:28:21.931Z,21.40
2018-05-04T13:30:49.504Z,31.23
2018-05-04T13:33:17.050Z,26.97
2018-05-04T13:35:44.616Z,25.00
2018-05-04T13:38:12.158Z,24.47
2018-05-04T13:40:39.724Z,24.27
2018-05-04T13:43:07.268Z,25.80
2018-05-04T13:45:34.844Z,26.03
2018-05-04T13:48:02.382Z,28.10
2018-05-04T13:50:29.943Z,29.83
2018-05-04T13:52:57.557Z,30.27
2018-05-04T13:55:25.893Z,27.27
2018-05-04T13:57:53.430Z,28.90
2018-05-04T14:00:21.003Z,28.70
2018-05-04T14:02:48.545Z,26.27
2018-05-04T14:05:16.102Z,24.43
2018-05-04T14:07:43.644Z,27.63
2018-05-04T14:10:12.071Z,26.40
2018-05-04T14:12:39.626Z,30.10
2018-05-04T14:15:07.208Z,28.00
2018-05-04T14:17:34.751Z,23.77
2018-05-04T14:20:02.325Z,30.77
2018-05-04T14:22:29.867Z,26.13
2018-05-04T14:24:57.431Z,24.87
2018-05-04T14:27:24.976Z,33.63
2018-05-04T14:29:52.515Z,26.93
2018-05-04T14:32:20.851Z,24.37
2018-05-04T14:34:48.471Z,23.37
2018-05-04T14:37:15.978Z,29.20
2018-05-04T14:39:44.285Z,23.13
2018-05-04T14:42:12.606Z,27.17
2018-05-04T14:44:40.151Z,28.37
2018-05-04T14:47:07.710Z,24.80
2018-05-04T14:49:35.250Z,24.83
2018-05-04T14:52:03.584Z,24.70
2018-05-04T14:54:31.137Z,23.27
2018-05-04T14:56:59.480Z,22.43
2018-05-04T14:59:27.034Z,23.80
2018-05-04T15:01:54.602Z,20.20
2018-05-04T15:04:22.143Z,20.57
2018-05-04T15:06:50.473Z,22.80
2018-05-04T15:09:18.011Z,22.07
2018-05-04T15:11:45.571Z,21.17
2018-05-04T15:14:13.119Z,20.33
2018-05-04T15:16:40.683Z,20.73
2018-05-04T15:19:08.219Z,19.23
2018-05-04T15:21:36.546Z,24.07
2018-05-04T15:24:04.089Z,19.63
2018-05-04T15:26:31.652Z,22.73
2018-05-04T15:28:59.200Z,18.43
2018-05-04T15:31:26.778Z,18.57
2018-05-04T15:33:54.328Z,18.80
2018-05-04T15:36:21.894Z,19.37
2018-05-04T15:38:49.461Z,19.13
2018-05-04T15:41:17.030Z,20.47
2018-05-04T15:43:44.573Z,18.67
2018-05-04T15:46:12.141Z,22.07
2018-05-04T15:48:45.440Z,17.53
2018-05-04T15:51:18.659Z,19.27
2018-05-04T15:53:46.205Z,17.30
2018-05-04T15:56:13.764Z,17.07
2018-05-04T15:58:41.306Z,18.40
2018-05-04T16:01:08.887Z,15.33
2018-05-04T16:03:36.435Z,18.20
2018-05-04T16:06:04.001Z,18.93
2018-05-04T16:08:31.559Z,21.63
2018-05-04T16:10:59.127Z,18.03
2018-05-04T16:13:26.676Z,19.03
2018-05-04T16:15:54.239Z,20.67
2018-05-04T16:18:21.787Z,14.57
2018-05-04T16:20:49.357Z,16.67
2018-05-04T16:23:16.902Z,18.20
2018-05-04T16:25:44.440Z,18.53
2018-05-04T16:28:12.007Z,14.80
2018-05-04T16:30:39.551Z,15.10
2018-05-04T16:33:07.893Z,19.93
2018-05-04T16:35:35.530Z,15.47
2018-05-04T16:38:03.122Z,15.00
2018-05-04T16:40:30.662Z,17.77
2018-05-04T16:43:04.783Z,20.50
2018-05-04T16:45:32.325Z,17.37
2018-05-04T16:48:05.676Z,20.73
2018-05-04T16:50:34.047Z,15.63
2018-05-04T16:53:01.570Z,15.20
2018-05-04T16:55:29.112Z,13.30
2018-05-04T16:57:56.672Z,13.37
2018-05-04T17:00:24.215Z,13.67
2018-05-04T17:02:51.779Z,12.47
2018-05-04T17:05:19.317Z,16.20
2018-05-04T17:07:47.647Z,15.83
2018-05-04T17:10:15.196Z,11.97
2018-05-04T17:12:42.761Z,12.67
2018-05-04T17:15:10.302Z,16.90
2018-05-04T17:17:37.870Z,20.23
2018-05-04T17:20:05.409Z,14.67
2018-05-04T17:22:32.976Z,15.03
2018-05-04T17:25:00.516Z,12.57
2018-05-04T17:27:28.845Z,20.87
2018-05-04T17:29:56.384Z,13.90
2018-05-04T17:32:23.941Z,13.90
2018-05-04T17:34:51.555Z,14.27
2018-05-04T17:37:19.083Z,21.10
2018-05-04T17:39:46.637Z,14.67
2018-05-04T17:42:14.293Z,22.10
2018-05-04T17:44:41.838Z,14.00
2018-05-04T17:47:09.415Z,15.03
2018-05-04T17:49:36.977Z,14.83
2018-05-04T17:52:04.556Z,16.60
2018-05-04T17:54:32.103Z,15.03
2018-05-04T17:56:59.673Z,15.37
2018-05-04T17:59:27.215Z,16.53
2018-05-04T18:01:54.783Z,18.40
2018-05-04T18:04:22.323Z,15.50
2018-05-04T18:06:49.886Z,15.47
2018-05-04T18:09:17.423Z,15.27
2018-05-04T18:11:45.759Z,13.73
2018-05-04T18:14:13.301Z,14.20
2018-05-04T18:16:40.862Z,14.93
2018-05-04T18:19:08.402Z,18.60
2018-05-04T18:21:35.967Z,15.77
2018-05-04T18:24:03.508Z,21.80
2018-05-04T18:26:31.051Z,19.43
2018-05-04T18:28:59.388Z,14.97
2018-05-04T18:31:26.956Z,14.33
2018-05-04T18:33:54.519Z,17.73
2018-05-04T18:36:22.066Z,16.47
2018-05-04T18:38:49.649Z,16.60
2018-05-04T18:41:17.198Z,15.67
2018-05-04T18:43:44.766Z,15.97
2018-05-04T18:46:12.306Z,15.20
2018-05-04T18:48:39.867Z,16.47
2018-05-04T18:51:07.516Z,16.23
2018-05-04T18:53:35.082Z,16.67
2018-05-04T18:56:02.633Z,15.80
2018-05-04T18:58:30.200Z,15.13
2018-05-04T19:00:57.739Z,18.17
2018-05-04T19:03:25.299Z,17.60
2018-05-04T19:05:52.837Z,18.17
2018-05-04T19:08:21.172Z,15.70
2018-05-04T19:10:48.709Z,23.50
2018-05-04T19:13:16.279Z,18.47
2018-05-04T19:15:43.815Z,16.70
2018-05-04T19:18:12.728Z,17.07
2018-05-04T19:20:40.331Z,16.40
2018-05-04T19:23:07.865Z,15.60
2018-05-04T19:25:35.408Z,21.07
2018-05-04T19:28:02.971Z,20.67
2018-05-04T19:30:30.520Z,21.10
2018-05-04T19:32:58.091Z,17.53
2018-05-04T19:35:25.631Z,18.23
2018-05-04T19:37:53.190Z,16.90
2018-05-04T19:40:20.730Z,24.90
2018-05-04T19:42:49.060Z,17.70
2018-05-04T19:45:16.606Z,22.53
2018-05-04T19:47:44.177Z,17.33
2018-05-04T19:50:11.723Z,19.30
2018-05-04T19:52:39.290Z,17.73
2018-05-04T19:55:06.834Z,18.63
2018-05-04T19:57:34.394Z,16.67
2018-05-04T20:00:01.941Z,20.27
2018-05-04T20:02:29.507Z,23.50
2018-05-04T20:04:57.050Z,21.33
2018-05-04T20:07:25.377Z,17.70
2018-05-04T20:09:52.926Z,21.10
2018-05-04T20:12:20.495Z,18.10
2018-05-04T20:14:48.041Z,20.90
2018-05-04T20:17:15.583Z,20.30
2018-05-04T20:19:43.148Z,19.70
2018-05-04T20:22:10.681Z,19.93
2018-05-04T20:24:39.019Z,18.80
2018-05-04T20:27:06.564Z,20.20
2018-05-04T20:29:34.122Z,20.33
2018-05-04T20:32:01.684Z,17.47
2018-05-04T20:34:29.247Z,19.03
2018-05-04T20:36:56.785Z,17.47
2018-05-04T20:39:24.358Z,21.50
2018-05-04T20:41:51.901Z,21.20
2018-05-04T20:44:19.462Z,22.63
2018-05-04T20:46:47.004Z,17.57
2018-05-04T20:49:15.341Z,20.23
2018-05-04T20:51:42.883Z,18.30
2018-05-04T20:54:10.446Z,21.87
2018-05-04T20:56:37.986Z,18.33
2018-05-04T20:59:05.547Z,17.47
2018-05-04T21:01:33.085Z,19.47
2018-05-04T21:04:01.414Z,19.17
2018-05-04T21:06:28.956Z,19.87
2018-05-04T21:08:56.517Z,20.53
2018-05-04T21:11:24.050Z,19.67
2018-05-04T21:13:52.378Z,20.70
2018-05-04T21:16:19.931Z,20.90
2018-05-04T21:18:47.496Z,19.80
2018-05-04T21:21:15.044Z,19.70
2018-05-04T21:23:43.369Z,20.30
2018-05-04T21:26:11.675Z,20.37
2018-05-04T21:28:39.235Z,20.50
2018-05-04T21:31:06.783Z,21.30
2018-05-04T21:33:34.350Z,19.67
2018-05-04T21:36:02.020Z,20.90
2018-05-04T21:38:29.528Z,22.17
2018-05-04T21:40:57.072Z,21.07
2018-05-04T21:43:24.642Z,18.40
2018-05-04T21:45:52.197Z,20.70
2018-05-04T21:48:19.758Z,21.00
2018-05-04T21:50:47.321Z,20.07
2018-05-04T21:53:14.888Z,23.50
2018-05-04T21:55:44.075Z,19.97
2018-05-04T21:58:11.639Z,26.07
2018-05-04T22:00:39.175Z,24.57
2018-05-04T22:03:06.739Z,28.53
2018-05-04T22:05:34.291Z,22.87
2018-05-04T22:08:01.858Z,24.33
2018-05-04T22:10:29.400Z,23.23
2018-05-04T22:12:56.941Z,25.43
2018-05-04T22:15:25.318Z,22.40
2018-05-04T22:17:52.850Z,25.87
2018-05-04T22:20:20.416Z,30.23
2018-05-04T22:22:47.963Z,26.33
2018-05-04T22:25:16.290Z,24.50
2018-05-04T22:27:43.838Z,23.97
2018-05-04T22:30:12.163Z,23.97
2018-05-04T22:32:39.702Z,25.93
2018-05-04T22:35:07.270Z,25.20
2018-05-04T22:37:34.815Z,24.03
2018-05-04T22:40:02.374Z,23.93
2018-05-04T22:42:29.914Z,21.33
2018-05-04T22:44:58.242Z,23.73
2018-05-04T22:47:25.774Z,31.47
2018-05-04T22:49:53.334Z,22.00
2018-05-04T22:52:20.878Z,26.00
2018-05-04T22:54:48.438Z,17.83
2018-05-04T22:57:16.745Z,18.13
2018-05-04T22:59:44.303Z,19.63
2018-05-04T23:02:11.844Z,17.70
2018-05-04T23:04:39.407Z,15.67
2018-05-04T23:07:06.947Z,10.33
2018-05-04T23:09:35.274Z,10.97
2018-05-04T23:12:02.814Z,10.33
2018-05-04T23:14:30.379Z,9.73
2018-05-04T23:16:57.921Z,13.77
2018-05-04T23:19:25.508Z,10.90
2018-05-04T23:21:53.038Z,9.73
2018-05-04T23:24:20.602Z,10.63
2018-05-04T23:26:48.131Z,10.90
2018-05-04T23:29:15.690Z,7.77
2018-05-04T23:31:43.234Z,12.47
2018-05-04T23:34:10.799Z,9.53
2018-05-04T23:36:38.341Z,8.70
2018-05-04T23:39:05.898Z,9.80
2018-05-04T23:41:33.434Z,12.70
2018-05-04T23:44:00.990Z,6.90
2018-05-04T23:46:28.529Z,8.13
2018-05-04T23:48:56.856Z,10.33
2018-05-04T23:51:24.391Z,13.20
2018-05-04T23:53:51.946Z,20.63
2018-05-04T23:56:19.483Z,8.83
2018-05-04T23:58:47.810Z,9.70
